Aviation Digital Data Service (ADDS)

Output produced by METARs form (2243 UTC 20 October 2014)
found at http://aviationweather.gov/adds/metars/
 
KBPT 201720Z 2018/2118 05007KT P6SM SCT250